sensor_id;sensor_type;location;lat;lon;timestamp;P1;durP1;ratioP1;P2;durP2;ratioP2
19505;SDS011;9894;50.852;-0.140;2024-03-22T00:02:00;25.15;;;11.68;;
19505;SDS011;9894;50.852;-0.140;2024-03-22T00:04:26;30.60;;;11.70;;
19505;SDS011;9894;50.852;-0.140;2024-03-22T00:06:53;27.10;;;10.75;;
19505;SDS011;9894;50.852;-0.140;2024-03-22T00:09:19;22.55;;;11.38;;
19505;SDS011;9894;50.852;-0.140;2024-03-22T00:11:46;32.78;;;11.32;;
19505;SDS011;9894;50.852;-0.140;2024-03-22T00:14:12;28.40;;;10.65;;
19505;SDS011;9894;50.852;-0.140;2024-03-22T00:16:39;27.10;;;10.43;;
19505;SDS011;9894;50.852;-0.140;2024-03-22T00:19:04;23.45;;;9.48;;
19505;SDS011;9894;50.852;-0.140;2024-03-22T00:21:31;25.02;;;9.70;;
19505;SDS011;9894;50.852;-0.140;2024-03-22T00:23:57;29.08;;;10.85;;
19505;SDS011;9894;50.852;-0.140;2024-03-22T00:26:24;24.70;;;11.00;;
19505;SDS011;9894;50.852;-0.140;2024-03-22T00:28:50;22.38;;;11.35;;
19505;SDS011;9894;50.852;-0.140;2024-03-22T00:31:17;29.15;;;12.35;;
19505;SDS011;9894;50.852;-0.140;2024-03-22T00:33:42;29.77;;;10.52;;
19505;SDS011;9894;50.852;-0.140;2024-03-22T00:36:09;32.75;;;11.05;;
19505;SDS011;9894;50.852;-0.140;2024-03-22T00:38:35;23.67;;;10.45;;
19505;SDS011;9894;50.852;-0.140;2024-03-22T00:41:02;29.42;;;12.18;;
19505;SDS011;9894;50.852;-0.140;2024-03-22T00:43:28;37.55;;;14.65;;
19505;SDS011;9894;50.852;-0.140;2024-03-22T00:45:54;27.52;;;11.63;;
19505;SDS011;9894;50.852;-0.140;2024-03-22T00:48:20;26.13;;;12.25;;
19505;SDS011;9894;50.852;-0.140;2024-03-22T00:50:47;25.25;;;11.15;;
19505;SDS011;9894;50.852;-0.140;2024-03-22T00:53:13;25.95;;;9.73;;
19505;SDS011;9894;50.852;-0.140;2024-03-22T00:55:40;20.23;;;8.80;;
19505;SDS011;9894;50.852;-0.140;2024-03-22T00:58:05;27.70;;;9.32;;
19505;SDS011;9894;50.852;-0.140;2024-03-22T01:00:32;19.90;;;8.40;;
19505;SDS011;9894;50.852;-0.140;2024-03-22T01:02:58;22.20;;;9.00;;
19505;SDS011;9894;50.852;-0.140;2024-03-22T01:05:25;24.40;;;8.80;;
19505;SDS011;9894;50.852;-0.140;2024-03-22T01:07:51;28.17;;;8.70;;
19505;SDS011;9894;50.852;-0.140;2024-03-22T01:10:18;19.27;;;8.25;;
19505;SDS011;9894;50.852;-0.140;2024-03-22T01:12:44;22.17;;;8.48;;
19505;SDS011;9894;50.852;-0.140;2024-03-22T01:15:11;30.98;;;8.45;;
19505;SDS011;9894;50.852;-0.140;2024-03-22T01:17:36;21.48;;;8.02;;
19505;SDS011;9894;50.852;-0.140;2024-03-22T01:20:04;19.90;;;8.50;;
19505;SDS011;9894;50.852;-0.140;2024-03-22T01:22:30;17.98;;;7.32;;
19505;SDS011;9894;50.852;-0.140;2024-03-22T01:24:57;21.63;;;7.75;;
19505;SDS011;9894;50.852;-0.140;2024-03-22T01:27:22;29.80;;;9.38;;
19505;SDS011;9894;50.852;-0.140;2024-03-22T01:29:49;25.60;;;9.25;;
19505;SDS011;9894;50.852;-0.140;2024-03-22T01:32:15;25.48;;;9.27;;
19505;SDS011;9894;50.852;-0.140;2024-03-22T01:34:42;25.35;;;9.05;;
19505;SDS011;9894;50.852;-0.140;2024-03-22T01:37:08;20.80;;;7.80;;
19505;SDS011;9894;50.852;-0.140;2024-03-22T01:39:34;25.98;;;8.75;;
19505;SDS011;9894;50.852;-0.140;2024-03-22T01:42:00;22.98;;;10.13;;
19505;SDS011;9894;50.852;-0.140;2024-03-22T01:44:27;22.98;;;8.90;;
19505;SDS011;9894;50.852;-0.140;2024-03-22T01:46:53;23.70;;;7.88;;
19505;SDS011;9894;50.852;-0.140;2024-03-22T01:49:20;30.20;;;8.55;;
19505;SDS011;9894;50.852;-0.140;2024-03-22T01:51:46;24.15;;;8.50;;
19505;SDS011;9894;50.852;-0.140;2024-03-22T01:54:13;22.65;;;7.55;;
19505;SDS011;9894;50.852;-0.140;2024-03-22T01:56:41;30.45;;;7.60;;
19505;SDS011;9894;50.852;-0.140;2024-03-22T01:59:07;18.55;;;7.07;;
19505;SDS011;9894;50.852;-0.140;2024-03-22T02:01:34;15.60;;;7.10;;
19505;SDS011;9894;50.852;-0.140;2024-03-22T02:04:02;22.25;;;7.53;;
19505;SDS011;9894;50.852;-0.140;2024-03-22T02:06:27;26.88;;;6.82;;
19505;SDS011;9894;50.852;-0.140;2024-03-22T02:08:55;17.27;;;7.30;;
19505;SDS011;9894;50.852;-0.140;2024-03-22T02:11:21;28.63;;;7.78;;
19505;SDS011;9894;50.852;-0.140;2024-03-22T02:13:49;21.23;;;8.02;;
19505;SDS011;9894;50.852;-0.140;2024-03-22T02:16:14;22.13;;;7.13;;
19505;SDS011;9894;50.852;-0.140;2024-03-22T02:18:41;23.33;;;7.07;;
19505;SDS011;9894;50.852;-0.140;2024-03-22T02:21:07;24.60;;;7.75;;
19505;SDS011;9894;50.852;-0.140;2024-03-22T02:23:37;25.17;;;7.57;;
19505;SDS011;9894;50.852;-0.140;2024-03-22T02:28:30;23.27;;;6.88;;
19505;SDS011;9894;50.852;-0.140;2024-03-22T02:30:57;16.80;;;6.97;;
19505;SDS011;9894;50.852;-0.140;2024-03-22T02:33:24;22.88;;;6.18;;
19505;SDS011;9894;50.852;-0.140;2024-03-22T02:35:50;19.77;;;5.82;;
19505;SDS011;9894;50.852;-0.140;2024-03-22T02:38:17;18.98;;;6.28;;
19505;SDS011;9894;50.852;-0.140;2024-03-22T02:40:43;23.70;;;6.25;;
19505;SDS011;9894;50.852;-0.140;2024-03-22T02:43:10;19.15;;;5.75;;
19505;SDS011;9894;50.852;-0.140;2024-03-22T02:45:36;28.88;;;5.70;;
19505;SDS011;9894;50.852;-0.140;2024-03-22T02:48:03;25.75;;;5.28;;
19505;SDS011;9894;50.852;-0.140;2024-03-22T02:50:32;22.40;;;5.28;;
19505;SDS011;9894;50.852;-0.140;2024-03-22T02:52:59;22.35;;;4.97;;
19505;SDS011;9894;50.852;-0.140;2024-03-22T02:55:25;27.13;;;5.35;;
19505;SDS011;9894;50.852;-0.140;2024-03-22T02:57:52;11.30;;;4.30;;
19505;SDS011;9894;50.852;-0.140;2024-03-22T03:00:18;16.42;;;4.43;;
19505;SDS011;9894;50.852;-0.140;2024-03-22T03:02:47;17.63;;;5.72;;
19505;SDS011;9894;50.852;-0.140;2024-03-22T03:05:13;20.00;;;4.07;;
19505;SDS011;9894;50.852;-0.140;2024-03-22T03:07:40;18.77;;;3.95;;
19505;SDS011;9894;50.852;-0.140;2024-03-22T03:10:06;17.92;;;3.92;;
19505;SDS011;9894;50.852;-0.140;2024-03-22T03:12:33;14.38;;;2.97;;
19505;SDS011;9894;50.852;-0.140;2024-03-22T03:14:59;20.02;;;3.88;;
19505;SDS011;9894;50.852;-0.140;2024-03-22T03:17:26;9.77;;;2.72;;
19505;SDS011;9894;50.852;-0.140;2024-03-22T03:19:51;16.38;;;3.80;;
19505;SDS011;9894;50.852;-0.140;2024-03-22T03:22:18;15.98;;;3.60;;
19505;SDS011;9894;50.852;-0.140;2024-03-22T03:24:44;17.13;;;3.08;;
19505;SDS011;9894;50.852;-0.140;2024-03-22T03:27:11;14.18;;;3.95;;
19505;SDS011;9894;50.852;-0.140;2024-03-22T03:29:36;10.18;;;3.22;;
19505;SDS011;9894;50.852;-0.140;2024-03-22T03:32:03;19.25;;;3.65;;
19505;SDS011;9894;50.852;-0.140;2024-03-22T03:34:29;21.02;;;4.05;;
19505;SDS011;9894;50.852;-0.140;2024-03-22T03:36:56;10.98;;;3.53;;
19505;SDS011;9894;50.852;-0.140;2024-03-22T03:39:26;16.20;;;3.92;;
19505;SDS011;9894;50.852;-0.140;2024-03-22T03:41:52;13.82;;;3.67;;
19505;SDS011;9894;50.852;-0.140;2024-03-22T03:44:18;19.95;;;4.90;;
19505;SDS011;9894;50.852;-0.140;2024-03-22T03:46:45;21.08;;;4.63;;
19505;SDS011;9894;50.852;-0.140;2024-03-22T03:49:11;14.18;;;4.28;;
19505;SDS011;9894;50.852;-0.140;2024-03-22T03:51:38;19.60;;;3.63;;
19505;SDS011;9894;50.852;-0.140;2024-03-22T03:54:03;19.95;;;3.50;;
19505;SDS011;9894;50.852;-0.140;2024-03-22T03:56:30;11.80;;;3.20;;
19505;SDS011;9894;50.852;-0.140;2024-03-22T03:58:56;23.35;;;4.15;;
19505;SDS011;9894;50.852;-0.140;2024-03-22T04:01:23;16.55;;;3.03;;
19505;SDS011;9894;50.852;-0.140;2024-03-22T04:03:49;12.63;;;3.28;;
19505;SDS011;9894;50.852;-0.140;2024-03-22T04:06:16;20.30;;;3.13;;
19505;SDS011;9894;50.852;-0.140;2024-03-22T04:08:42;13.95;;;2.90;;
19505;SDS011;9894;50.852;-0.140;2024-03-22T04:11:10;11.68;;;3.13;;
19505;SDS011;9894;50.852;-0.140;2024-03-22T04:13:37;19.85;;;3.88;;
19505;SDS011;9894;50.852;-0.140;2024-03-22T04:16:04;20.10;;;3.20;;
19505;SDS011;9894;50.852;-0.140;2024-03-22T04:18:30;19.38;;;5.32;;
19505;SDS011;9894;50.852;-0.140;2024-03-22T04:20:57;14.55;;;3.22;;
19505;SDS011;9894;50.852;-0.140;2024-03-22T04:23:24;18.88;;;3.60;;
19505;SDS011;9894;50.852;-0.140;2024-03-22T04:25:55;9.43;;;3.45;;
19505;SDS011;9894;50.852;-0.140;2024-03-22T04:28:21;15.63;;;3.50;;
19505;SDS011;9894;50.852;-0.140;2024-03-22T04:30:54;14.40;;;3.42;;
19505;SDS011;9894;50.852;-0.140;2024-03-22T04:33:20;13.95;;;3.67;;
19505;SDS011;9894;50.852;-0.140;2024-03-22T04:35:47;9.65;;;2.40;;
19505;SDS011;9894;50.852;-0.140;2024-03-22T04:38:13;10.20;;;3.22;;
19505;SDS011;9894;50.852;-0.140;2024-03-22T04:40:40;16.23;;;4.07;;
19505;SDS011;9894;50.852;-0.140;2024-03-22T04:43:07;17.88;;;3.30;;
19505;SDS011;9894;50.852;-0.140;2024-03-22T04:45:34;15.38;;;3.58;;
19505;SDS011;9894;50.852;-0.140;2024-03-22T04:48:01;20.95;;;3.55;;
19505;SDS011;9894;50.852;-0.140;2024-03-22T04:50:27;22.90;;;3.88;;
19505;SDS011;9894;50.852;-0.140;2024-03-22T04:52:54;19.83;;;3.33;;
19505;SDS011;9894;50.852;-0.140;2024-03-22T04:55:20;17.17;;;3.85;;
19505;SDS011;9894;50.852;-0.140;2024-03-22T04:57:47;16.13;;;3.33;;
19505;SDS011;9894;50.852;-0.140;2024-03-22T05:00:12;14.60;;;3.25;;
19505;SDS011;9894;50.852;-0.140;2024-03-22T05:02:39;16.58;;;3.67;;
19505;SDS011;9894;50.852;-0.140;2024-03-22T05:05:05;20.70;;;3.72;;
19505;SDS011;9894;50.852;-0.140;2024-03-22T05:07:33;27.23;;;5.03;;
19505;SDS011;9894;50.852;-0.140;2024-03-22T05:09:58;16.85;;;4.35;;
19505;SDS011;9894;50.852;-0.140;2024-03-22T05:12:25;8.82;;;3.08;;
19505;SDS011;9894;50.852;-0.140;2024-03-22T05:14:51;17.75;;;3.58;;
19505;SDS011;9894;50.852;-0.140;2024-03-22T05:17:18;18.17;;;3.70;;
19505;SDS011;9894;50.852;-0.140;2024-03-22T05:19:43;22.25;;;4.18;;
19505;SDS011;9894;50.852;-0.140;2024-03-22T05:22:10;16.58;;;4.28;;
19505;SDS011;9894;50.852;-0.140;2024-03-22T05:24:36;17.17;;;4.35;;
19505;SDS011;9894;50.852;-0.140;2024-03-22T05:27:03;12.50;;;3.45;;
19505;SDS011;9894;50.852;-0.140;2024-03-22T05:29:29;11.55;;;4.18;;
19505;SDS011;9894;50.852;-0.140;2024-03-22T05:31:55;19.60;;;3.15;;
19505;SDS011;9894;50.852;-0.140;2024-03-22T05:34:22;11.48;;;4.50;;
19505;SDS011;9894;50.852;-0.140;2024-03-22T05:36:49;17.02;;;3.22;;
19505;SDS011;9894;50.852;-0.140;2024-03-22T05:39:15;15.80;;;3.28;;
19505;SDS011;9894;50.852;-0.140;2024-03-22T05:41:42;22.33;;;4.03;;
19505;SDS011;9894;50.852;-0.140;2024-03-22T05:44:07;17.52;;;3.78;;
19505;SDS011;9894;50.852;-0.140;2024-03-22T05:46:34;9.35;;;3.65;;
19505;SDS011;9894;50.852;-0.140;2024-03-22T05:49:00;14.18;;;2.90;;
19505;SDS011;9894;50.852;-0.140;2024-03-22T05:51:27;18.70;;;4.30;;
19505;SDS011;9894;50.852;-0.140;2024-03-22T05:53:53;18.05;;;3.95;;
19505;SDS011;9894;50.852;-0.140;2024-03-22T05:56:19;8.95;;;2.90;;
19505;SDS011;9894;50.852;-0.140;2024-03-22T05:58:45;16.85;;;3.47;;
19505;SDS011;9894;50.852;-0.140;2024-03-22T06:01:12;15.82;;;2.97;;
19505;SDS011;9894;50.852;-0.140;2024-03-22T06:03:38;12.55;;;4.00;;
19505;SDS011;9894;50.852;-0.140;2024-03-22T06:06:05;16.50;;;3.80;;
19505;SDS011;9894;50.852;-0.140;2024-03-22T06:08:30;19.65;;;4.65;;
19505;SDS011;9894;50.852;-0.140;2024-03-22T06:11:00;23.17;;;3.75;;
19505;SDS011;9894;50.852;-0.140;2024-03-22T06:13:26;20.65;;;3.65;;
19505;SDS011;9894;50.852;-0.140;2024-03-22T06:15:53;17.10;;;2.85;;
19505;SDS011;9894;50.852;-0.140;2024-03-22T06:18:18;20.60;;;4.05;;
19505;SDS011;9894;50.852;-0.140;2024-03-22T06:20:45;23.95;;;4.43;;
19505;SDS011;9894;50.852;-0.140;2024-03-22T06:23:11;14.77;;;3.15;;
19505;SDS011;9894;50.852;-0.140;2024-03-22T06:25:38;19.42;;;3.90;;
19505;SDS011;9894;50.852;-0.140;2024-03-22T06:28:04;20.60;;;4.03;;
19505;SDS011;9894;50.852;-0.140;2024-03-22T06:30:30;16.05;;;3.53;;
19505;SDS011;9894;50.852;-0.140;2024-03-22T06:32:56;11.40;;;2.85;;
19505;SDS011;9894;50.852;-0.140;2024-03-22T06:35:23;24.35;;;4.25;;
19505;SDS011;9894;50.852;-0.140;2024-03-22T06:37:49;22.08;;;4.47;;
19505;SDS011;9894;50.852;-0.140;2024-03-22T06:40:16;21.42;;;3.90;;
19505;SDS011;9894;50.852;-0.140;2024-03-22T06:42:41;15.05;;;3.35;;
19505;SDS011;9894;50.852;-0.140;2024-03-22T06:45:08;14.93;;;3.92;;
19505;SDS011;9894;50.852;-0.140;2024-03-22T06:47:34;12.00;;;3.00;;
19505;SDS011;9894;50.852;-0.140;2024-03-22T06:50:01;21.02;;;3.78;;
19505;SDS011;9894;50.852;-0.140;2024-03-22T06:52:27;8.20;;;3.30;;
19505;SDS011;9894;50.852;-0.140;2024-03-22T06:54:54;21.88;;;3.92;;
19505;SDS011;9894;50.852;-0.140;2024-03-22T06:57:19;14.35;;;3.05;;
19505;SDS011;9894;50.852;-0.140;2024-03-22T06:59:45;20.02;;;3.55;;
19505;SDS011;9894;50.852;-0.140;2024-03-22T07:02:12;15.48;;;3.83;;
19505;SDS011;9894;50.852;-0.140;2024-03-22T07:04:39;14.02;;;3.15;;
19505;SDS011;9894;50.852;-0.140;2024-03-22T07:07:06;15.98;;;4.22;;
19505;SDS011;9894;50.852;-0.140;2024-03-22T07:09:32;13.07;;;3.45;;
19505;SDS011;9894;50.852;-0.140;2024-03-22T07:12:00;19.70;;;3.90;;
19505;SDS011;9894;50.852;-0.140;2024-03-22T07:14:26;18.08;;;4.10;;
19505;SDS011;9894;50.852;-0.140;2024-03-22T07:16:53;15.52;;;3.25;;
19505;SDS011;9894;50.852;-0.140;2024-03-22T07:19:22;18.35;;;3.60;;
19505;SDS011;9894;50.852;-0.140;2024-03-22T07:21:49;21.95;;;5.47;;
19505;SDS011;9894;50.852;-0.140;2024-03-22T07:24:15;26.10;;;4.50;;
19505;SDS011;9894;50.852;-0.140;2024-03-22T07:26:43;13.75;;;3.50;;
19505;SDS011;9894;50.852;-0.140;2024-03-22T07:29:09;11.95;;;3.58;;
19505;SDS011;9894;50.852;-0.140;2024-03-22T07:31:36;19.80;;;4.30;;
19505;SDS011;9894;50.852;-0.140;2024-03-22T07:34:01;17.25;;;4.25;;
19505;SDS011;9894;50.852;-0.140;2024-03-22T07:36:30;17.13;;;3.75;;
19505;SDS011;9894;50.852;-0.140;2024-03-22T07:38:55;17.15;;;4.82;;
19505;SDS011;9894;50.852;-0.140;2024-03-22T07:41:23;10.57;;;3.00;;
19505;SDS011;9894;50.852;-0.140;2024-03-22T07:43:49;11.43;;;2.97;;
19505;SDS011;9894;50.852;-0.140;2024-03-22T07:46:16;19.02;;;4.75;;
19505;SDS011;9894;50.852;-0.140;2024-03-22T07:48:42;16.70;;;3.97;;
19505;SDS011;9894;50.852;-0.140;2024-03-22T07:51:09;10.00;;;2.97;;
19505;SDS011;9894;50.852;-0.140;2024-03-22T07:53:35;15.50;;;3.28;;
19505;SDS011;9894;50.852;-0.140;2024-03-22T07:56:02;18.73;;;2.92;;
19505;SDS011;9894;50.852;-0.140;2024-03-22T07:58:31;19.63;;;3.88;;
19505;SDS011;9894;50.852;-0.140;2024-03-22T08:00:57;30.90;;;6.55;;
19505;SDS011;9894;50.852;-0.140;2024-03-22T08:03:23;25.05;;;4.20;;
19505;SDS011;9894;50.852;-0.140;2024-03-22T08:05:50;27.88;;;4.85;;
19505;SDS011;9894;50.852;-0.140;2024-03-22T08:08:16;16.77;;;3.40;;
19505;SDS011;9894;50.852;-0.140;2024-03-22T08:10:43;14.40;;;3.65;;
19505;SDS011;9894;50.852;-0.140;2024-03-22T08:13:09;24.00;;;4.55;;
19505;SDS011;9894;50.852;-0.140;2024-03-22T08:15:36;22.58;;;3.55;;
19505;SDS011;9894;50.852;-0.140;2024-03-22T08:18:02;15.02;;;3.53;;
19505;SDS011;9894;50.852;-0.140;2024-03-22T08:20:29;15.77;;;3.63;;
19505;SDS011;9894;50.852;-0.140;2024-03-22T08:22:57;23.90;;;4.82;;
19505;SDS011;9894;50.852;-0.140;2024-03-22T08:25:23;17.17;;;3.65;;
19505;SDS011;9894;50.852;-0.140;2024-03-22T08:27:50;25.30;;;4.00;;
19505;SDS011;9894;50.852;-0.140;2024-03-22T08:30:19;17.73;;;3.92;;
19505;SDS011;9894;50.852;-0.140;2024-03-22T08:32:46;27.63;;;4.95;;
19505;SDS011;9894;50.852;-0.140;2024-03-22T08:35:12;13.75;;;3.78;;
19505;SDS011;9894;50.852;-0.140;2024-03-22T08:37:39;23.50;;;4.43;;
19505;SDS011;9894;50.852;-0.140;2024-03-22T08:40:05;13.75;;;4.05;;
19505;SDS011;9894;50.852;-0.140;2024-03-22T08:42:32;13.63;;;4.25;;
19505;SDS011;9894;50.852;-0.140;2024-03-22T08:44:58;12.88;;;4.13;;
19505;SDS011;9894;50.852;-0.140;2024-03-22T08:47:25;26.05;;;5.57;;
19505;SDS011;9894;50.852;-0.140;2024-03-22T08:49:51;16.90;;;4.15;;
19505;SDS011;9894;50.852;-0.140;2024-03-22T08:52:18;15.23;;;5.25;;
19505;SDS011;9894;50.852;-0.140;2024-03-22T08:54:43;17.20;;;4.15;;
19505;SDS011;9894;50.852;-0.140;2024-03-22T08:57:10;14.27;;;4.78;;
19505;SDS011;9894;50.852;-0.140;2024-03-22T08:59:36;13.35;;;4.75;;
19505;SDS011;9894;50.852;-0.140;2024-03-22T09:02:03;17.58;;;5.32;;
19505;SDS011;9894;50.852;-0.140;2024-03-22T09:04:29;15.68;;;4.43;;
19505;SDS011;9894;50.852;-0.140;2024-03-22T09:06:56;12.73;;;4.30;;
19505;SDS011;9894;50.852;-0.140;2024-03-22T09:09:23;15.45;;;4.95;;
19505;SDS011;9894;50.852;-0.140;2024-03-22T09:11:50;29.08;;;6.35;;
19505;SDS011;9894;50.852;-0.140;2024-03-22T09:14:16;27.58;;;7.07;;
19505;SDS011;9894;50.852;-0.140;2024-03-22T09:16:43;13.73;;;5.75;;
19505;SDS011;9894;50.852;-0.140;2024-03-22T09:19:09;17.67;;;5.68;;
19505;SDS011;9894;50.852;-0.140;2024-03-22T09:21:36;22.40;;;7.55;;
19505;SDS011;9894;50.852;-0.140;2024-03-22T09:24:02;19.33;;;6.55;;
19505;SDS011;9894;50.852;-0.140;2024-03-22T09:26:30;30.45;;;7.07;;
19505;SDS011;9894;50.852;-0.140;2024-03-22T09:28:55;21.08;;;6.68;;
19505;SDS011;9894;50.852;-0.140;2024-03-22T09:31:22;30.05;;;8.27;;
19505;SDS011;9894;50.852;-0.140;2024-03-22T09:33:48;19.38;;;7.00;;
19505;SDS011;9894;50.852;-0.140;2024-03-22T09:36:15;27.55;;;6.28;;
19505;SDS011;9894;50.852;-0.140;2024-03-22T09:38:42;17.25;;;6.10;;
19505;SDS011;9894;50.852;-0.140;2024-03-22T09:41:07;17.73;;;5.72;;
19505;SDS011;9894;50.852;-0.140;2024-03-22T09:43:34;21.52;;;6.10;;
19505;SDS011;9894;50.852;-0.140;2024-03-22T09:46:01;16.95;;;6.90;;
19505;SDS011;9894;50.852;-0.140;2024-03-22T09:48:28;19.95;;;7.20;;
19505;SDS011;9894;50.852;-0.140;2024-03-22T09:50:54;16.33;;;6.82;;
19505;SDS011;9894;50.852;-0.140;2024-03-22T09:53:21;24.67;;;7.90;;
19505;SDS011;9894;50.852;-0.140;2024-03-22T09:55:48;15.82;;;7.47;;
19505;SDS011;9894;50.852;-0.140;2024-03-22T09:58:15;18.85;;;5.88;;
19505;SDS011;9894;50.852;-0.140;2024-03-22T10:00:42;16.98;;;6.38;;
19505;SDS011;9894;50.852;-0.140;2024-03-22T10:03:09;15.82;;;6.30;;
19505;SDS011;9894;50.852;-0.140;2024-03-22T10:05:36;14.55;;;5.85;;
19505;SDS011;9894;50.852;-0.140;2024-03-22T10:08:03;14.07;;;6.72;;
19505;SDS011;9894;50.852;-0.140;2024-03-22T10:10:31;21.45;;;6.47;;
19505;SDS011;9894;50.852;-0.140;2024-03-22T10:13:02;14.38;;;6.15;;
19505;SDS011;9894;50.852;-0.140;2024-03-22T10:15:28;13.43;;;6.00;;
19505;SDS011;9894;50.852;-0.140;2024-03-22T10:17:59;14.65;;;5.78;;
19505;SDS011;9894;50.852;-0.140;2024-03-22T10:20:25;25.00;;;6.38;;
19505;SDS011;9894;50.852;-0.140;2024-03-22T10:22:55;24.77;;;6.45;;
19505;SDS011;9894;50.852;-0.140;2024-03-22T10:25:22;18.10;;;6.28;;
19505;SDS011;9894;50.852;-0.140;2024-03-22T10:27:49;27.00;;;6.50;;
19505;SDS011;9894;50.852;-0.140;2024-03-22T10:30:16;22.63;;;6.47;;
19505;SDS011;9894;50.852;-0.140;2024-03-22T10:32:43;24.90;;;6.25;;
19505;SDS011;9894;50.852;-0.140;2024-03-22T10:35:13;22.55;;;7.22;;
19505;SDS011;9894;50.852;-0.140;2024-03-22T10:37:40;19.55;;;6.72;;
19505;SDS011;9894;50.852;-0.140;2024-03-22T10:40:06;24.48;;;7.40;;
19505;SDS011;9894;50.852;-0.140;2024-03-22T10:42:38;21.50;;;6.45;;
19505;SDS011;9894;50.852;-0.140;2024-03-22T10:45:05;25.77;;;7.28;;
19505;SDS011;9894;50.852;-0.140;2024-03-22T10:47:32;21.17;;;7.20;;
19505;SDS011;9894;50.852;-0.140;2024-03-22T10:52:33;19.13;;;6.63;;
19505;SDS011;9894;50.852;-0.140;2024-03-22T10:55:00;18.50;;;7.53;;
19505;SDS011;9894;50.852;-0.140;2024-03-22T10:57:28;26.15;;;7.55;;
19505;SDS011;9894;50.852;-0.140;2024-03-22T10:59:55;27.38;;;7.75;;
19505;SDS011;9894;50.852;-0.140;2024-03-22T11:02:25;19.63;;;6.82;;
19505;SDS011;9894;50.852;-0.140;2024-03-22T11:04:57;23.60;;;8.45;;
19505;SDS011;9894;50.852;-0.140;2024-03-22T11:07:28;18.77;;;7.30;;
19505;SDS011;9894;50.852;-0.140;2024-03-22T11:09:57;24.48;;;8.10;;
19505;SDS011;9894;50.852;-0.140;2024-03-22T11:12:25;25.00;;;7.05;;
19505;SDS011;9894;50.852;-0.140;2024-03-22T11:14:52;27.38;;;8.98;;
19505;SDS011;9894;50.852;-0.140;2024-03-22T11:17:18;22.15;;;8.00;;
19505;SDS011;9894;50.852;-0.140;2024-03-22T11:19:44;28.15;;;8.52;;
19505;SDS011;9894;50.852;-0.140;2024-03-22T11:22:11;28.90;;;8.50;;
19505;SDS011;9894;50.852;-0.140;2024-03-22T11:24:38;16.58;;;7.35;;
19505;SDS011;9894;50.852;-0.140;2024-03-22T11:27:05;28.48;;;8.52;;
19505;SDS011;9894;50.852;-0.140;2024-03-22T11:29:31;20.38;;;7.25;;
19505;SDS011;9894;50.852;-0.140;2024-03-22T11:31:57;24.85;;;9.10;;
19505;SDS011;9894;50.852;-0.140;2024-03-22T11:34:23;27.90;;;9.93;;
19505;SDS011;9894;50.852;-0.140;2024-03-22T11:36:50;27.83;;;7.65;;
19505;SDS011;9894;50.852;-0.140;2024-03-22T11:39:16;26.95;;;8.32;;
19505;SDS011;9894;50.852;-0.140;2024-03-22T11:41:44;36.05;;;8.77;;
19505;SDS011;9894;50.852;-0.140;2024-03-22T11:44:10;22.50;;;8.23;;
19505;SDS011;9894;50.852;-0.140;2024-03-22T11:46:37;20.35;;;6.82;;
19505;SDS011;9894;50.852;-0.140;2024-03-22T11:49:03;30.50;;;7.70;;
19505;SDS011;9894;50.852;-0.140;2024-03-22T11:51:30;22.20;;;7.47;;
19505;SDS011;9894;50.852;-0.140;2024-03-22T11:53:56;18.95;;;7.50;;
19505;SDS011;9894;50.852;-0.140;2024-03-22T11:56:24;21.90;;;7.68;;
19505;SDS011;9894;50.852;-0.140;2024-03-22T11:58:57;25.48;;;8.35;;
19505;SDS011;9894;50.852;-0.140;2024-03-22T12:01:24;19.08;;;7.70;;
19505;SDS011;9894;50.852;-0.140;2024-03-22T12:03:50;20.95;;;6.97;;
19505;SDS011;9894;50.852;-0.140;2024-03-22T12:06:17;26.23;;;8.13;;
19505;SDS011;9894;50.852;-0.140;2024-03-22T12:08:46;17.33;;;6.38;;
19505;SDS011;9894;50.852;-0.140;2024-03-22T12:11:13;18.20;;;7.10;;
19505;SDS011;9894;50.852;-0.140;2024-03-22T12:13:39;21.00;;;6.80;;
19505;SDS011;9894;50.852;-0.140;2024-03-22T12:16:06;19.45;;;6.88;;
19505;SDS011;9894;50.852;-0.140;2024-03-22T12:18:32;23.05;;;6.75;;
19505;SDS011;9894;50.852;-0.140;2024-03-22T12:21:00;16.48;;;6.35;;
19505;SDS011;9894;50.852;-0.140;2024-03-22T12:23:25;18.25;;;6.38;;
19505;SDS011;9894;50.852;-0.140;2024-03-22T12:25:52;16.38;;;6.82;;
19505;SDS011;9894;50.852;-0.140;2024-03-22T12:28:18;23.48;;;7.57;;
19505;SDS011;9894;50.852;-0.140;2024-03-22T12:30:45;17.90;;;6.75;;
19505;SDS011;9894;50.852;-0.140;2024-03-22T12:33:11;17.85;;;6.35;;
19505;SDS011;9894;50.852;-0.140;2024-03-22T12:35:39;17.38;;;6.03;;
19505;SDS011;9894;50.852;-0.140;2024-03-22T12:38:05;26.60;;;6.85;;
19505;SDS011;9894;50.852;-0.140;2024-03-22T12:40:32;22.65;;;6.80;;
19505;SDS011;9894;50.852;-0.140;2024-03-22T12:42:58;20.90;;;7.80;;
19505;SDS011;9894;50.852;-0.140;2024-03-22T12:45:25;18.75;;;6.10;;
19505;SDS011;9894;50.852;-0.140;2024-03-22T12:47:51;9.70;;;5.15;;
19505;SDS011;9894;50.852;-0.140;2024-03-22T12:50:18;7.72;;;4.25;;
19505;SDS011;9894;50.852;-0.140;2024-03-22T12:52:44;8.82;;;3.95;;
19505;SDS011;9894;50.852;-0.140;2024-03-22T12:55:11;8.13;;;4.03;;
19505;SDS011;9894;50.852;-0.140;2024-03-22T12:57:37;6.50;;;3.00;;
19505;SDS011;9894;50.852;-0.140;2024-03-22T13:00:05;7.20;;;2.95;;
19505;SDS011;9894;50.852;-0.140;2024-03-22T13:02:41;3.60;;;1.38;;
19505;SDS011;9894;50.852;-0.140;2024-03-22T13:05:08;2.60;;;1.88;;
19505;SDS011;9894;50.852;-0.140;2024-03-22T13:07:34;5.97;;;1.92;;
19505;SDS011;9894;50.852;-0.140;2024-03-22T13:10:01;7.57;;;2.03;;
19505;SDS011;9894;50.852;-0.140;2024-03-22T13:12:27;7.25;;;2.05;;
19505;SDS011;9894;50.852;-0.140;2024-03-22T13:14:56;6.00;;;2.60;;
19505;SDS011;9894;50.852;-0.140;2024-03-22T13:17:23;7.53;;;2.53;;
19505;SDS011;9894;50.852;-0.140;2024-03-22T13:19:50;5.03;;;1.75;;
19505;SDS011;9894;50.852;-0.140;2024-03-22T13:22:16;6.78;;;1.92;;
19505;SDS011;9894;50.852;-0.140;2024-03-22T13:24:47;8.85;;;2.00;;
19505;SDS011;9894;50.852;-0.140;2024-03-22T13:27:13;8.70;;;2.15;;
19505;SDS011;9894;50.852;-0.140;2024-03-22T13:29:40;10.48;;;2.00;;
19505;SDS011;9894;50.852;-0.140;2024-03-22T13:32:05;8.18;;;2.10;;
19505;SDS011;9894;50.852;-0.140;2024-03-22T13:34:37;6.60;;;1.75;;
19505;SDS011;9894;50.852;-0.140;2024-03-22T13:37:03;4.15;;;1.80;;
19505;SDS011;9894;50.852;-0.140;2024-03-22T13:39:30;9.57;;;2.00;;
19505;SDS011;9894;50.852;-0.140;2024-03-22T13:41:56;10.40;;;2.15;;
19505;SDS011;9894;50.852;-0.140;2024-03-22T13:44:23;12.80;;;2.40;;
19505;SDS011;9894;50.852;-0.140;2024-03-22T13:46:49;10.23;;;2.42;;
19505;SDS011;9894;50.852;-0.140;2024-03-22T13:49:17;11.75;;;2.38;;
19505;SDS011;9894;50.852;-0.140;2024-03-22T13:51:43;11.25;;;3.00;;
19505;SDS011;9894;50.852;-0.140;2024-03-22T13:54:11;16.02;;;2.20;;
19505;SDS011;9894;50.852;-0.140;2024-03-22T13:56:37;15.68;;;1.88;;
19505;SDS011;9894;50.852;-0.140;2024-03-22T13:59:04;12.27;;;2.10;;
19505;SDS011;9894;50.852;-0.140;2024-03-22T14:01:31;9.23;;;1.63;;
19505;SDS011;9894;50.852;-0.140;2024-03-22T14:03:58;13.68;;;1.73;;
19505;SDS011;9894;50.852;-0.140;2024-03-22T14:06:24;11.93;;;2.05;;
19505;SDS011;9894;50.852;-0.140;2024-03-22T14:08:51;11.82;;;2.55;;
19505;SDS011;9894;50.852;-0.140;2024-03-22T14:11:20;11.50;;;1.55;;
19505;SDS011;9894;50.852;-0.140;2024-03-22T14:13:47;10.40;;;1.90;;
19505;SDS011;9894;50.852;-0.140;2024-03-22T14:16:13;6.30;;;1.15;;
19505;SDS011;9894;50.852;-0.140;2024-03-22T14:18:40;11.90;;;1.40;;
19505;SDS011;9894;50.852;-0.140;2024-03-22T14:21:06;4.50;;;1.10;;
19505;SDS011;9894;50.852;-0.140;2024-03-22T14:23:33;6.65;;;1.05;;
19505;SDS011;9894;50.852;-0.140;2024-03-22T14:25:59;7.15;;;1.23;;
19505;SDS011;9894;50.852;-0.140;2024-03-22T14:28:26;5.68;;;1.52;;
19505;SDS011;9894;50.852;-0.140;2024-03-22T14:30:52;7.47;;;1.70;;
19505;SDS011;9894;50.852;-0.140;2024-03-22T14:33:19;10.82;;;1.65;;
19505;SDS011;9894;50.852;-0.140;2024-03-22T14:35:45;9.70;;;1.75;;
19505;SDS011;9894;50.852;-0.140;2024-03-22T14:38:11;16.42;;;3.30;;